Time;durP1;ratioP1;P1;durP2;ratioP2;P2;SDS_P1;SDS_P2;PMS_P1;PMS_P2;Temp;Humidity;BMP_temperature;BMP_pressure;BME280_temperature;BME280_humidity;BME280_pressure;Samples;Min_cycle;Max_cycle;Signal;HPM_P1;HPM_P2
2021/11/18 00:00:33;;;;;;;19.73;10.65;;;;;;;8.51;74.20;97643.91;4945425;29;20047;-63
2021/11/18 00:03:01;;;;;;;18.13;9.18;;;;;;;8.45;74.81;97628.69;4943690;29;20318;-63
2021/11/18 00:05:29;;;;;;;19.55;9.55;;;;;;;8.38;74.33;97606.38;4959591;28;20514;-63
2021/11/18 00:07:57;;;;;;;18.27;9.07;;;;;;;8.52;74.72;97628.97;4949575;28;20082;-63
2021/11/18 00:10:33;;;;;;;16.95;7.82;;;;;;;8.25;75.06;97618.53;4945411;28;20527;-64
2021/11/18 00:13:03;;;;;;;15.75;8.57;;;;;;;8.23;74.96;97587.72;4943760;29;20055;-63
2021/11/18 00:15:32;;;;;;;19.42;10.10;;;;;;;8.37;74.57;97599.25;4947610;28;20508;-63
2021/11/18 00:18:01;;;;;;;40.00;16.48;;;;;;;8.67;74.30;97631.84;4946611;29;20067;-64
2021/11/18 00:20:32;;;;;;;32.50;14.85;;;;;;;8.60;74.89;97630.81;4948350;29;20062;-63
2021/11/18 00:23:00;;;;;;;26.85;11.95;;;;;;;8.32;75.65;97591.19;4948574;29;20082;-63
2021/11/18 00:25:27;;;;;;;33.65;14.70;;;;;;;8.68;74.95;97633.47;4948469;29;21057;-64
2021/11/18 00:27:53;;;;;;;31.00;12.25;;;;;;;8.69;73.92;97639.78;4948007;29;20059;-61
2021/11/18 00:30:21;;;;;;;23.73;11.80;;;;;;;8.61;74.25;97632.41;4946581;29;20062;-64
2021/11/18 00:32:49;;;;;;;22.38;10.88;;;;;;;8.60;74.51;97636.34;4946971;29;20051;-62
2021/11/18 00:35:19;;;;;;;16.73;9.75;;;;;;;8.47;74.67;97659.53;4947992;29;20529;-62
2021/11/18 00:37:48;;;;;;;22.33;10.10;;;;;;;6.16;74.66;97255.94;4947803;29;20048;-63
2021/11/18 00:40:18;;;;;;;17.13;9.60;;;;;;;8.57;75.11;97642.53;4947954;28;20062;-63
2021/11/18 00:42:45;;;;;;;18.98;11.00;;;;;;;8.49;75.97;97640.66;4948294;29;20138;-63
2021/11/18 00:45:14;;;;;;;24.23;10.75;;;;;;;8.41;76.05;97627.78;4948148;29;20062;-62
2021/11/18 00:47:41;;;;;;;24.98;9.98;;;;;;;7.22;76.22;97437.56;4946337;29;20063;-63
2021/11/18 00:50:09;;;;;;;19.15;9.52;;;;;;;8.45;76.85;97632.28;4948375;29;20058;-64
2021/11/18 00:52:35;;;;;;;16.65;9.07;;;;;;;8.49;76.92;97627.66;4962688;28;20134;-63
2021/11/18 00:55:05;;;;;;;18.42;10.13;;;;;;;8.52;76.34;97634.47;4946612;29;20134;-62
2021/11/18 00:57:33;;;;;;;22.02;9.45;;;;;;;8.26;76.12;97592.56;4947687;29;20113;-63
2021/11/18 01:00:01;;;;;;;24.52;11.48;;;;;;;8.54;75.34;97626.63;4946452;29;20057;-63
2021/11/18 01:02:28;;;;;;;32.17;13.07;;;;;;;8.54;75.31;97632.16;4946072;29;20051;-64
2021/11/18 01:04:55;;;;;;;34.53;13.60;;;;;;;8.54;76.10;97632.97;4947504;29;20510;-63
2021/11/18 01:07:24;;;;;;;28.50;12.32;;;;;;;8.56;75.82;97633.44;4942313;29;20063;-64
2021/11/18 01:09:51;;;;;;;23.38;10.93;;;;;;;8.56;75.28;97629.88;4927499;29;20059;-63
2021/11/18 01:12:17;;;;;;;19.75;10.38;;;;;;;8.46;75.92;97624.78;4927064;29;20055;-63
2021/11/18 01:14:44;;;;;;;18.35;9.63;;;;;;;8.58;75.52;97635.88;4942480;29;20056;-63
2021/11/18 01:17:11;;;;;;;18.40;9.02;;;;;;;8.58;75.01;97628.38;4927966;29;20099;-62
2021/11/18 01:19:38;;;;;;;19.67;8.80;;;;;;;8.54;75.28;97632.16;4926632;29;20550;-62
2021/11/18 01:22:07;;;;;;;19.48;8.93;;;;;;;8.40;74.75;97588.31;4928098;29;20055;-62
2021/11/18 01:24:37;;;;;;;22.25;9.60;;;;;;;8.57;75.27;97620.44;4927775;29;20056;-64
2021/11/18 01:27:05;;;;;;;17.92;7.35;;;;;;;8.54;75.64;97623.88;4926649;28;20067;-62
2021/11/18 01:29:32;;;;;;;13.15;7.45;;;;;;;8.48;75.54;97619.72;4928146;29;20067;-62
2021/11/18 01:31:59;;;;;;;17.77;8.43;;;;;;;8.47;74.19;97598.81;4926942;29;20051;-63
2021/11/18 01:34:27;;;;;;;14.80;7.57;;;;;;;8.46;75.19;97616.50;4942227;29;20061;-64
2021/11/18 01:36:54;;;;;;;18.75;8.88;;;;;;;7.60;75.85;97545.66;4927913;29;20062;-62
2021/11/18 01:39:21;;;;;;;12.65;7.22;;;;;;;8.15;75.62;97563.75;4928129;29;20055;-64
2021/11/18 01:41:48;;;;;;;16.13;8.32;;;;;;;8.39;76.26;97608.00;4927564;29;20086;-62
2021/11/18 01:44:25;;;;;;;17.63;8.30;;;;;;;8.28;77.53;97617.88;4942542;28;20058;-62
2021/11/18 01:46:52;;;;;;;19.20;8.73;;;;;;;8.08;79.66;97613.19;4927622;29;20066;-61
2021/11/18 01:49:18;;;;;;;17.98;8.80;;;;;;;8.17;78.83;97589.84;4927183;29;20063;-62
2021/11/18 01:51:49;;;;;;;15.95;8.05;;;;;;;8.28;77.66;97612.34;4927446;29;20051;-61
2021/11/18 01:54:19;;;;;;;16.92;8.18;;;;;;;8.27;77.73;97619.81;4927596;29;20098;-63
2021/11/18 01:56:46;;;;;;;15.32;7.28;;;;;;;8.27;77.47;97594.16;4927058;29;20062;-62
2021/11/18 01:59:20;;;;;;;18.00;7.90;;;;;;;8.38;77.63;97620.16;4927688;29;20058;-61
2021/11/18 02:01:51;;;;;;;13.60;7.18;;;;;;;7.95;77.95;97581.19;4927390;29;20079;-63
2021/11/18 02:04:21;;;;;;;16.08;7.50;;;;;;;8.28;77.09;97601.31;4928104;29;20063;-61
2021/11/18 02:06:53;;;;;;;16.90;7.72;;;;;;;7.82;79.53;97635.50;4925635;28;20541;-61
2021/11/18 02:09:23;;;;;;;18.35;8.27;;;;;;;7.91;80.47;97624.38;4944935;29;20055;-63
2021/11/18 02:11:57;;;;;;;19.55;9.65;;;;;;;7.99;80.76;97629.00;4946635;28;20138;-61
2021/11/18 02:14:26;;;;;;;17.33;8.43;;;;;;;7.50;85.07;97648.06;4946823;28;20058;-63
2021/11/18 02:17:00;;;;;;;20.50;9.50;;;;;;;7.34;85.47;97630.53;4946394;28;20089;-61
2021/11/18 02:19:33;;;;;;;20.40;9.77;;;;;;;7.46;87.05;97633.34;4946360;28;20145;-61
2021/11/18 02:22:00;;;;;;;28.15;10.90;;;;;;;7.64;85.94;97643.09;4946774;28;20089;-62
2021/11/18 02:24:30;;;;;;;24.13;11.10;;;;;;;7.24;84.93;97537.22;4946388;28;20486;-61
2021/11/18 02:26:57;;;;;;;37.75;15.55;;;;;;;7.95;84.64;97637.13;4946191;28;20073;-61
2021/11/18 02:29:24;;;;;;;45.03;15.85;;;;;;;7.37;83.38;97522.38;4960852;28;20055;-61
2021/11/18 02:31:57;;;;;;;38.53;16.77;;;;;;;8.09;82.73;97625.81;4944212;29;20535;-62
2021/11/18 02:34:48;;;;;;;37.47;15.05;;;;;;;8.18;82.53;97618.25;4946506;28;20059;-62
2021/11/18 02:37:16;;;;;;;48.10;18.88;;;;;;;8.14;82.27;97622.84;4945589;28;20063;-62
2021/11/18 02:39:43;;;;;;;55.50;20.70;;;;;;;8.22;81.75;97624.72;4946171;28;20059;-62
2021/11/18 02:42:11;;;;;;;56.65;21.25;;;;;;;8.32;81.20;97619.59;4944561;29;20055;-62
2021/11/18 02:44:39;;;;;;;58.13;22.55;;;;;;;8.37;80.86;97621.31;4944234;29;20055;-62
2021/11/18 02:47:11;;;;;;;28.33;12.07;;;;;;;8.32;80.95;97629.81;4945580;29;20063;-62
2021/11/18 02:49:50;;;;;;;23.27;11.05;;;;;;;8.37;79.64;97637.88;4946042;28;20069;-61
2021/11/18 02:52:27;;;;;;;19.42;9.88;;;;;;;8.33;79.05;97631.44;4945624;28;20051;-62
2021/11/18 02:54:56;;;;;;;24.35;11.15;;;;;;;8.42;78.65;97626.63;4945549;28;20453;-61
2021/11/18 02:57:23;;;;;;;25.65;10.70;;;;;;;8.44;78.47;97643.66;4945949;28;20428;-63
2021/11/18 02:59:50;;;;;;;21.90;9.65;;;;;;;7.84;78.15;97530.34;4945604;28;20055;-62
2021/11/18 03:02:17;;;;;;;20.83;9.80;;;;;;;8.49;77.84;97635.13;4943815;29;20073;-62
2021/11/18 03:04:44;;;;;;;24.33;10.68;;;;;;;8.54;78.83;97637.69;4944373;29;20070;-62
2021/11/18 03:07:10;;;;;;;19.65;9.75;;;;;;;8.55;78.71;97637.34;4945310;28;20057;-62
2021/11/18 03:09:37;;;;;;;18.13;9.77;;;;;;;8.56;79.23;97635.41;4945780;29;20054;-61
2021/11/18 03:12:05;;;;;;;17.58;8.68;;;;;;;8.44;79.93;97629.88;4943766;29;20134;-62
2021/11/18 03:14:32;;;;;;;19.73;9.70;;;;;;;8.28;79.56;97584.75;4945897;29;20315;-61
2021/11/18 03:16:59;;;;;;;19.80;9.80;;;;;;;8.61;79.07;97643.47;4945039;29;20056;-61
2021/11/18 03:19:27;;;;;;;27.08;10.00;;;;;;;8.63;78.93;97643.94;4945950;29;20062;-61
2021/11/18 03:21:54;;;;;;;20.40;9.13;;;;;;;8.56;78.31;97630.69;4945188;29;20051;-62
2021/11/18 03:24:23;;;;;;;22.73;9.95;;;;;;;8.65;77.98;97644.38;4945748;28;20067;-61
2021/11/18 03:26:50;;;;;;;22.83;11.40;;;;;;;8.66;78.29;97640.47;4959707;28;20170;-61
2021/11/18 03:29:17;;;;;;;26.38;12.65;;;;;;;8.58;77.52;97622.84;4945745;29;21122;-61
2021/11/18 03:31:43;;;;;;;26.77;11.85;;;;;;;8.65;78.17;97628.63;4944518;29;20055;-62
2021/11/18 03:34:14;;;;;;;25.98;12.38;;;;;;;8.75;78.03;97643.94;4946015;29;20066;-61
2021/11/18 03:36:41;;;;;;;33.83;12.95;;;;;;;8.43;78.19;97587.63;4945202;29;20139;-61
2021/11/18 03:39:11;;;;;;;60.65;20.08;;;;;;;7.81;79.24;97492.44;4944236;29;20082;-62
2021/11/18 03:41:40;;;;;;;42.70;18.73;;;;;;;8.62;79.38;97634.84;4944736;29;20598;-62
2021/11/18 03:44:09;;;;;;;27.55;12.02;;;;;;;8.57;78.35;97642.53;4945655;29;20061;-62
2021/11/18 03:46:41;;;;;;;26.45;12.02;;;;;;;7.56;79.25;97514.41;4945183;29;20059;-60
2021/11/18 03:49:10;;;;;;;22.83;11.63;;;;;;;8.22;79.96;97608.16;4945827;28;20090;-64
2021/11/18 03:51:38;;;;;;;28.27;11.52;;;;;;;8.45;79.46;97629.53;4949270;28;20631;-61
2021/11/18 03:54:06;;;;;;;21.63;10.70;;;;;;;8.48;79.14;97628.03;4949446;29;20051;-62
2021/11/18 03:56:39;;;;;;;22.65;9.70;;;;;;;8.57;78.58;97626.78;4948586;29;20431;-63
2021/11/18 03:59:12;;;;;;;24.08;10.00;;;;;;;8.03;79.29;97558.22;4947668;29;20134;-60
2021/11/18 04:01:40;;;;;;;18.77;9.13;;;;;;;8.38;79.33;97611.88;4948392;28;20540;-60
2021/11/18 04:04:10;;;;;;;18.60;9.40;;;;;;;8.39;79.23;97690.81;4948836;29;20438;-63
2021/11/18 04:06:39;;;;;;;21.00;8.50;;;;;;;8.40;79.28;97615.13;4948194;29;20051;-62
2021/11/18 04:09:07;;;;;;;18.92;8.95;;;;;;;8.25;79.61;97597.25;4948841;28;20069;-62
2021/11/18 04:11:34;;;;;;;17.10;9.50;;;;;;;8.07;79.50;97573.75;4963037;28;20386;-61
2021/11/18 04:14:02;;;;;;;17.45;8.95;;;;;;;8.44;79.58;97627.09;4947563;29;20518;-63
2021/11/18 04:16:28;;;;;;;22.10;10.18;;;;;;;8.42;80.00;97607.31;4948496;29;20118;-62
2021/11/18 04:18:56;;;;;;;25.60;13.80;;;;;;;8.41;79.58;97605.72;4947979;29;20071;-64
2021/11/18 04:21:23;;;;;;;36.75;14.27;;;;;;;8.18;79.91;97574.09;4947770;29;20584;-62
2021/11/18 04:23:49;;;;;;;32.95;15.27;;;;;;;8.41;79.22;97619.50;4948625;29;20114;-62
2021/11/18 04:26:16;;;;;;;35.75;16.45;;;;;;;7.58;79.19;97533.38;4948448;28;20835;-61
2021/11/18 04:28:43;;;;;;;76.30;30.63;;;;;;;8.45;79.33;97628.69;4948102;29;20063;-62
2021/11/18 04:31:16;;;;;;;57.33;22.85;;;;;;;8.47;78.80;97626.41;4948356;29;20055;-63
2021/11/18 04:33:43;;;;;;;76.95;29.00;;;;;;;5.93;78.45;97218.91;4947085;29;20063;-62
2021/11/18 04:36:12;;;;;;;52.60;22.38;;;;;;;8.08;78.29;97569.03;4948327;28;20498;-63
2021/11/18 04:38:39;;;;;;;38.58;18.10;;;;;;;8.45;78.55;97628.69;4948804;29;20051;-62
2021/11/18 04:41:07;;;;;;;35.33;16.48;;;;;;;8.43;79.01;97633.75;4946540;29;20051;-63
2021/11/18 04:43:34;;;;;;;35.13;15.85;;;;;;;8.43;79.29;97626.28;4948006;29;20051;-62
2021/11/18 04:46:01;;;;;;;40.67;18.30;;;;;;;8.31;79.88;97606.13;4947547;29;20054;-63
2021/11/18 04:48:28;;;;;;;34.53;17.92;;;;;;;8.21;79.70;97595.50;4947634;28;20914;-63
2021/11/18 04:50:56;;;;;;;37.53;18.65;;;;;;;8.45;80.15;97634.22;4947656;29;20059;-62
2021/11/18 04:53:26;;;;;;;41.92;18.55;;;;;;;8.05;80.03;97569.69;4947733;29;20058;-62
2021/11/18 04:55:53;;;;;;;32.03;15.75;;;;;;;8.41;80.56;97625.03;4948005;29;20059;-61
2021/11/18 04:58:21;;;;;;;31.85;14.18;;;;;;;8.31;81.02;97634.56;4947728;29;20047;-63
2021/11/18 05:00:52;;;;;;;27.23;13.00;;;;;;;8.37;80.76;97643.41;4947258;28;20051;-62
2021/11/18 05:03:22;;;;;;;26.48;12.73;;;;;;;8.44;80.02;97638.16;4947540;28;20065;-62
2021/11/18 05:05:50;;;;;;;31.00;12.60;;;;;;;8.49;79.22;97641.47;4947316;29;20057;-63
2021/11/18 05:08:17;;;;;;;33.88;15.77;;;;;;;8.25;79.25;97635.88;4947472;28;20063;-61
2021/11/18 05:10:48;;;;;;;35.85;16.13;;;;;;;8.26;80.72;97648.56;4945703;29;20598;-62
2021/11/18 05:13:16;;;;;;;29.00;13.15;;;;;;;7.76;81.14;97567.09;4945704;29;20079;-62
2021/11/18 05:15:46;;;;;;;29.73;12.85;;;;;;;7.83;81.34;97645.38;4946147;29;20139;-60
2021/11/18 05:18:13;;;;;;;26.30;13.75;;;;;;;8.36;81.59;97663.88;4945602;29;20059;-62
2021/11/18 05:20:41;;;;;;;21.90;11.38;;;;;;;7.91;82.22;97621.59;4947154;29;20062;-62
2021/11/18 05:23:09;;;;;;;18.75;9.73;;;;;;;7.35;84.51;97574.25;4947140;29;20058;-62
2021/11/18 05:25:36;;;;;;;20.88;9.52;;;;;;;8.03;84.20;97671.31;4947275;29;20578;-62
2021/11/18 05:28:04;;;;;;;18.08;8.98;;;;;;;7.91;84.39;97651.94;4947065;29;20066;-62
2021/11/18 05:30:33;;;;;;;20.13;9.05;;;;;;;8.06;84.44;97676.16;4945824;29;20063;-62
2021/11/18 05:33:05;;;;;;;21.98;9.38;;;;;;;7.72;83.92;97633.94;4961874;28;20047;-61
2021/11/18 05:35:33;;;;;;;16.15;8.43;;;;;;;7.71;86.91;97681.94;4945846;29;20066;-60
2021/11/18 05:38:00;;;;;;;18.38;8.90;;;;;;;7.94;85.15;97689.88;4961455;28;20073;-62
2021/11/18 05:40:27;;;;;;;18.33;9.27;;;;;;;5.88;84.17;97353.84;4946139;29;20113;-62
2021/11/18 05:42:54;;;;;;;21.20;9.48;;;;;;;8.02;84.97;97694.53;4945355;29;20059;-62
2021/11/18 05:45:24;;;;;;;32.13;11.10;;;;;;;8.02;83.72;97689.00;4946761;28;20055;-62
2021/11/18 05:47:51;;;;;;;26.30;11.02;;;;;;;5.10;86.44;97307.78;4947166;28;20051;-62
2021/11/18 05:50:20;;;;;;;29.92;13.00;;;;;;;7.06;87.27;97640.44;4947174;28;20047;-62
2021/11/18 05:52:47;;;;;;;28.60;12.23;;;;;;;6.53;89.54;97584.34;4945306;29;20138;-63
2021/11/18 05:55:16;;;;;;;32.75;12.73;;;;;;;7.44;90.08;97701.78;4961257;28;20058;-64
2021/11/18 05:57:45;;;;;;;37.13;16.33;;;;;;;7.61;88.58;97704.44;4946709;28;20058;-62
2021/11/18 06:00:17;;;;;;;56.33;24.33;;;;;;;7.70;88.71;97701.59;4946612;28;20058;-63
2021/11/18 06:02:44;;;;;;;49.92;18.90;;;;;;;7.84;87.17;97707.66;4945375;29;20065;-63
2021/11/18 06:05:13;;;;;;;49.35;18.65;;;;;;;7.97;83.43;97711.28;4946266;28;20055;-63
2021/11/18 06:07:40;;;;;;;45.78;19.75;;;;;;;7.57;82.70;97648.34;4944777;29;20437;-62
2021/11/18 06:10:08;;;;;;;52.92;19.85;;;;;;;7.49;81.70;97621.63;4946789;29;20059;-64
2021/11/18 06:12:39;;;;;;;46.55;16.77;;;;;;;7.87;82.49;97722.72;4945603;28;20051;-63
2021/11/18 06:15:06;;;;;;;51.58;18.27;;;;;;;7.61;82.01;97682.38;4946108;29;20069;-64
2021/11/18 06:17:33;;;;;;;50.67;17.95;;;;;;;7.78;80.49;97725.53;4944450;29;20511;-63
2021/11/18 06:19:59;;;;;;;48.83;18.55;;;;;;;6.92;82.98;97716.97;4946308;29;20055;-63
2021/11/18 06:22:27;;;;;;;45.72;16.67;;;;;;;6.60;84.57;97730.50;4945901;29;20055;-62
2021/11/18 06:24:54;;;;;;;49.17;17.15;;;;;;;6.46;86.07;97725.22;4946052;29;20051;-61
2021/11/18 06:27:22;;;;;;;42.38;17.13;;;;;;;6.37;86.79;97729.91;4944541;29;20055;-62
2021/11/18 06:29:50;;;;;;;48.25;17.60;;;;;;;6.64;86.42;97737.78;4944999;29;20065;-62
2021/11/18 06:32:17;;;;;;;46.17;17.67;;;;;;;5.62;88.17;97616.91;4944540;29;20063;-61
2021/11/18 06:34:45;;;;;;;64.55;18.92;;;;;;;6.36;89.08;97744.81;4944249;29;20541;-62
2021/11/18 06:37:12;;;;;;;50.10;19.83;;;;;;;5.96;89.14;97661.69;4945890;29;20055;-62
2021/11/18 06:39:40;;;;;;;44.55;18.52;;;;;;;6.57;88.25;97718.22;4945906;28;20893;-62
2021/11/18 06:42:09;;;;;;;50.60;20.13;;;;;;;7.15;86.90;97745.88;4945677;29;20150;-62
2021/11/18 06:44:37;;;;;;;65.57;25.02;;;;;;;6.65;85.70;97609.22;4945523;28;20059;-62
2021/11/18 06:47:05;;;;;;;74.97;29.83;;;;;;;7.71;84.56;97742.63;4945671;29;20465;-62
2021/11/18 06:49:31;;;;;;;59.53;23.95;;;;;;;7.90;82.43;97739.44;4944589;29;20062;-63
2021/11/18 06:51:58;;;;;;;49.53;21.02;;;;;;;8.08;80.45;97746.41;4960318;28;20073;-64
2021/11/18 06:54:25;;;;;;;58.95;22.40;;;;;;;8.28;80.23;97755.84;4946102;29;20062;-62
2021/11/18 06:56:52;;;;;;;59.22;24.58;;;;;;;8.39;77.44;97746.84;4945499;29;20051;-63
2021/11/18 06:59:19;;;;;;;64.40;26.23;;;;;;;8.33;77.01;97703.22;4959843;28;20556;-63
2021/11/18 07:01:46;;;;;;;74.10;29.98;;;;;;;8.87;75.49;97740.63;4945158;29;20534;-64
2021/11/18 07:04:13;;;;;;;69.20;30.98;;;;;;;8.92;75.69;97748.69;4944501;29;20058;-63
2021/11/18 07:06:40;;;;;;;75.03;28.17;;;;;;;9.07;74.72;97745.28;4944798;28;20051;-62
2021/11/18 07:11:37;;;;;;;64.60;26.48;;;;;;;8.74;73.74;97697.56;5087330;27;1309524;-64
2021/11/18 07:14:05;;;;;;;50.30;21.02;;;;;;;8.75;75.73;97746.94;5112306;28;20148;-64
2021/11/18 07:16:32;;;;;;;46.50;19.27;;;;;;;8.53;76.21;97735.47;5101043;28;20132;-66
2021/11/18 07:18:59;;;;;;;49.85;18.40;;;;;;;8.64;75.47;97701.59;5109297;28;20044;-64
2021/11/18 07:21:26;;;;;;;47.78;18.20;;;;;;;9.29;73.91;97736.56;5112598;28;20047;-64
2021/11/18 07:23:56;;;;;;;44.08;18.23;;;;;;;9.47;73.36;97732.38;5118482;28;20071;-62
2021/11/18 07:26:23;;;;;;;39.53;16.67;;;;;;;9.33;73.04;97709.81;5117010;28;20548;-70
2021/11/18 07:28:50;;;;;;;34.13;16.85;;;;;;;9.31;72.38;97761.88;5108150;28;20510;-62
2021/11/18 07:31:16;;;;;;;43.92;18.95;;;;;;;9.94;72.10;97780.53;5121471;28;20446;-69
2021/11/18 07:33:44;;;;;;;34.85;14.35;;;;;;;10.28;68.32;97735.75;5119461;28;20061;-64
2021/11/18 07:36:10;;;;;;;32.95;14.88;;;;;;;8.88;68.78;97549.66;5121514;27;20463;-64
2021/11/18 07:38:38;;;;;;;40.05;15.35;;;;;;;10.14;69.85;97723.44;5120348;28;20047;-62
2021/11/18 07:41:07;;;;;;;34.38;15.88;;;;;;;8.33;68.75;97391.34;5121592;27;20055;-69
2021/11/18 07:43:39;;;;;;;27.98;12.75;;;;;;;9.83;69.43;97690.06;5119346;27;20051;-64
2021/11/18 07:46:26;;;;;;;25.50;11.98;;;;;;;8.56;68.82;97475.25;5120602;27;20067;-69
2021/11/18 07:48:58;;;;;;;19.05;8.50;;;;;;;9.54;66.06;97563.94;5114373;28;20116;-72
2021/11/18 07:51:25;;;;;;;23.60;9.45;;;;;;;9.48;65.55;97568.09;5120244;27;20344;-72
2021/11/18 07:53:52;;;;;;;21.17;9.32;;;;;;;10.58;65.72;97712.06;5120193;27;20058;-65
2021/11/18 07:56:21;;;;;;;22.65;9.88;;;;;;;9.58;65.83;97556.53;5119018;28;20136;-62
2021/11/18 07:58:49;;;;;;;19.40;9.82;;;;;;;10.61;65.20;97682.84;5119691;27;20043;-67
2021/11/18 08:01:17;;;;;;;23.42;9.85;;;;;;;10.61;66.13;97727.97;5120254;27;20504;-66
2021/11/18 08:03:45;;;;;;;17.10;8.50;;;;;;;10.76;63.97;97707.00;5118834;28;20134;-62
2021/11/18 08:06:16;;;;;;;14.70;7.35;;;;;;;10.87;63.48;97707.28;5120231;27;20051;-62
2021/11/18 08:08:47;;;;;;;14.52;7.30;;;;;;;9.63;62.79;97505.69;5120930;27;20171;-71
2021/11/18 08:11:35;;;;;;;15.60;7.03;;;;;;;10.35;62.68;97641.78;5119887;27;20680;-72
2021/11/18 08:14:04;;;;;;;14.10;6.38;;;;;;;10.36;61.33;97587.19;5120044;27;20469;-64
2021/11/18 08:16:31;;;;;;;14.35;6.82;;;;;;;10.76;61.36;97661.84;5118988;27;20498;-63
2021/11/18 08:18:58;;;;;;;15.05;7.03;;;;;;;10.97;61.41;97662.41;5116988;28;20163;-64
2021/11/18 08:21:25;;;;;;;16.67;7.05;;;;;;;11.42;60.81;97690.47;5102533;27;20712;-61
2021/11/18 08:23:52;;;;;;;15.93;6.93;;;;;;;11.77;60.50;97691.31;5086001;28;20052;-64
2021/11/18 08:26:20;;;;;;;13.07;6.20;;;;;;;11.24;59.69;97584.66;5095877;28;20569;-61
2021/11/18 08:28:47;;;;;;;19.40;8.20;;;;;;;11.96;59.52;97691.34;5090224;28;20048;-61
2021/11/18 08:31:15;;;;;;;18.63;7.50;;;;;;;11.06;58.89;97513.31;5104882;28;20057;-64
2021/11/18 08:33:43;;;;;;;14.90;6.78;;;;;;;12.41;57.33;97694.28;5096265;28;20063;-60
2021/11/18 08:36:10;;;;;;;12.15;6.40;;;;;;;12.31;58.44;97694.91;5105663;28;20051;-62
2021/11/18 08:38:38;;;;;;;15.40;7.03;;;;;;;11.83;57.87;97717.63;5103244;27;20086;-70
2021/11/18 08:41:07;;;;;;;12.80;7.28;;;;;;;12.15;57.72;97646.94;5093885;28;20047;-61
2021/11/18 08:43:37;;;;;;;14.23;7.45;;;;;;;11.02;57.74;97526.31;5106520;28;20097;-61
2021/11/18 08:46:06;;;;;;;14.68;7.30;;;;;;;12.09;57.99;97687.28;5105925;28;20073;-60
2021/11/18 08:48:33;;;;;;;34.00;11.48;;;;;;;11.07;57.70;97540.69;5105238;28;20059;-63
2021/11/18 08:51:17;;;;;;;13.98;7.07;;;;;;;12.03;57.78;97686.75;5103001;28;20062;-64
2021/11/18 08:53:47;;;;;;;32.70;11.25;;;;;;;11.77;57.84;97646.91;5104472;28;20055;-60
2021/11/18 08:56:14;;;;;;;27.23;9.85;;;;;;;11.29;58.06;97558.59;5104028;28;20051;-64
2021/11/18 08:58:45;;;;;;;36.55;12.32;;;;;;;11.63;58.22;97638.28;5101548;28;20043;-61
2021/11/18 09:01:21;;;;;;;30.73;11.65;;;;;;;10.93;59.42;97575.56;5096145;28;20073;-71
2021/11/18 09:03:51;;;;;;;30.38;11.02;;;;;;;11.54;59.54;97705.03;5100033;27;20044;-69
2021/11/18 09:06:21;;;;;;;25.55;10.73;;;;;;;11.36;59.94;97714.91;5103268;28;20051;-68
2021/11/18 09:08:48;;;;;;;22.98;10.20;;;;;;;10.76;60.91;97670.16;5105835;28;20139;-63
2021/11/18 09:11:16;;;;;;;30.63;12.20;;;;;;;11.11;61.15;97701.59;5100578;28;20165;-68
2021/11/18 09:13:44;;;;;;;21.85;9.05;;;;;;;10.90;61.05;97667.75;5103005;28;20055;-69
2021/11/18 09:16:12;;;;;;;22.33;8.65;;;;;;;11.19;61.13;97692.28;5104511;28;20056;-70
2021/11/18 09:18:42;;;;;;;20.65;8.40;;;;;;;11.13;61.13;97710.34;5100688;28;20505;-67
2021/11/18 09:21:14;;;;;;;15.95;7.40;;;;;;;10.98;61.67;97666.78;5099950;28;20548;-61
2021/11/18 09:23:46;;;;;;;18.77;8.80;;;;;;;10.83;60.78;97590.00;5058392;28;20056;-65
2021/11/18 09:26:15;;;;;;;18.02;8.15;;;;;;;11.83;59.62;97689.88;5055836;28;20048;-63
2021/11/18 09:28:42;;;;;;;16.23;5.88;;;;;;;11.11;58.98;97535.22;5055407;28;20049;-67
2021/11/18 09:31:12;;;;;;;18.48;8.27;;;;;;;11.35;58.87;97559.94;5050655;28;20119;-66
2021/11/18 09:33:39;;;;;;;14.43;7.00;;;;;;;12.19;58.04;97681.94;5058586;28;20084;-63
2021/11/18 09:36:10;;;;;;;17.13;7.53;;;;;;;11.88;58.43;97647.94;5047510;28;20455;-62
2021/11/18 09:38:44;;;;;;;14.30;7.47;;;;;;;10.66;58.53;97497.75;5048116;28;20598;-67
2021/11/18 09:41:22;;;;;;;15.20;7.55;;;;;;;12.09;58.07;97687.28;5044822;28;20053;-63
2021/11/18 09:44:11;;;;;;;18.38;7.53;;;;;;;12.13;58.70;97677.84;5044533;28;20049;-68
2021/11/18 09:47:09;;;;;;;16.80;7.63;;;;;;;11.61;58.27;97598.94;5043969;28;20159;-68
2021/11/18 09:50:03;;;;;;;13.93;6.72;;;;;;;12.38;57.75;97667.25;5043140;28;20057;-66
2021/11/18 09:52:49;;;;;;;;;;;;;;;12.27;58.21;97671.78;5042796;28;20049;-67
2021/11/18 09:55:46;;;;;;;17.85;6.65;;;;;;;11.97;58.49;97734.59;5044367;28;19924;-63
2021/11/18 09:58:26;;;;;;;17.67;7.53;;;;;;;11.99;58.55;97660.09;5042949;28;20491;-66
2021/11/18 10:01:14;;;;;;;16.98;7.15;;;;;;;12.26;58.39;97664.63;5042419;28;20331;-66
2021/11/18 10:04:18;;;;;;;13.52;7.10;;;;;;;12.38;57.38;97658.91;5043148;28;20516;-66
2021/11/18 10:06:47;;;;;;;15.80;7.07;;;;;;;11.05;57.37;97457.06;5044267;28;20535;-68
2021/11/18 10:09:26;;;;;;;17.42;7.75;;;;;;;11.32;57.60;97492.13;5043886;28;20055;-68
2021/11/18 10:12:11;;;;;;;13.57;7.00;;;;;;;11.94;57.32;97568.75;5043151;28;20067;-67
2021/11/18 10:14:49;;;;;;;12.63;6.10;;;;;;;12.63;56.68;97649.06;5044329;28;20052;-63
2021/11/18 10:17:19;;;;;;;16.92;7.18;;;;;;;12.61;56.91;97645.88;5042184;28;20259;-64
2021/11/18 10:19:58;;;;;;;16.25;8.25;;;;;;;12.30;56.56;97576.59;5044285;28;20063;-67
2021/11/18 10:22:27;;;;;;;13.70;6.20;;;;;;;12.77;55.84;97618.75;5043478;28;20512;-64
2021/11/18 10:24:56;;;;;;;15.93;7.95;;;;;;;12.49;55.85;97590.44;5044104;28;20049;-63
2021/11/18 10:27:35;;;;;;;15.98;7.70;;;;;;;12.49;56.46;97598.78;5043428;28;20056;-69
2021/11/18 10:30:34;;;;;;;14.80;7.28;;;;;;;12.93;56.23;97633.31;5043870;28;20447;-65
2021/11/18 10:33:15;;;;;;;14.65;6.82;;;;;;;13.09;55.51;97627.66;5043821;28;20783;-62
2021/11/18 10:36:08;;;;;;;17.13;7.00;;;;;;;12.19;56.04;97536.69;5041457;28;20052;-61
2021/11/18 10:38:43;;;;;;;14.05;6.43;;;;;;;12.00;57.58;97579.19;5043028;28;20414;-64
2021/11/18 10:41:12;;;;;;;17.35;7.63;;;;;;;12.61;56.92;97622.81;5050772;28;20127;-63
2021/11/18 10:43:40;;;;;;;17.50;7.82;;;;;;;9.49;55.89;97119.00;5059597;28;20049;-61
2021/11/18 10:46:24;;;;;;;16.70;8.52;;;;;;;12.15;56.73;97513.63;5041782;28;20081;-66
2021/11/18 10:49:10;;;;;;;13.27;6.82;;;;;;;11.95;56.30;97487.88;5040817;28;20443;-67
2021/11/18 10:51:41;;;;;;;15.52;7.78;;;;;;;12.32;56.67;97540.09;5052396;28;20065;-70
2021/11/18 10:54:15;;;;;;;17.85;7.78;;;;;;;12.84;56.55;97632.78;5033675;28;20045;-66
2021/11/18 10:57:14;;;;;;;14.45;7.38;;;;;;;12.91;55.80;97607.88;5021731;28;20057;-70
2021/11/18 10:59:44;;;;;;;12.40;6.93;;;;;;;12.82;56.08;97610.09;5021854;28;20057;-67
2021/11/18 11:02:30;;;;;;;12.35;6.97;;;;;;;12.24;56.39;97522.50;5023352;28;20057;-63
2021/11/18 11:05:00;;;;;;;13.90;7.15;;;;;;;12.82;56.05;97615.66;5040293;28;20061;-66
2021/11/18 11:07:35;;;;;;;16.88;7.60;;;;;;;12.73;55.94;97592.88;5021004;28;20140;-63
2021/11/18 11:10:06;;;;;;;18.17;8.20;;;;;;;12.39;55.75;97523.59;5056128;28;20600;-67
2021/11/18 11:12:38;;;;;;;16.20;7.65;;;;;;;12.99;55.92;97598.47;5052186;28;20067;-61
2021/11/18 11:15:14;;;;;;;15.13;8.23;;;;;;;12.94;55.37;97596.03;5056706;28;20072;-73
2021/11/18 11:17:52;;;;;;;13.85;7.63;;;;;;;13.03;55.52;97593.81;5041998;28;20063;-63
2021/11/18 11:20:43;;;;;;;18.58;8.63;;;;;;;13.05;55.60;97612.91;5042224;28;20049;-71
2021/11/18 11:23:23;;;;;;;20.35;8.02;;;;;;;12.78;55.11;97548.09;5030488;28;20102;-64
2021/11/18 11:25:55;;;;;;;14.00;7.20;;;;;;;12.99;55.38;97587.34;5041073;28;20045;-67
2021/11/18 11:28:28;;;;;;;15.07;7.45;;;;;;;12.72;56.26;97588.50;5038700;28;20515;-65
2021/11/18 11:31:04;;;;;;;17.10;7.65;;;;;;;12.81;55.14;97547.34;5051344;28;20049;-61
2021/11/18 11:33:49;;;;;;;18.40;6.95;;;;;;;12.35;55.17;97479.06;5039234;28;20074;-65
2021/11/18 11:36:25;;;;;;;18.35;7.47;;;;;;;12.69;56.42;97571.75;5057684;28;20048;-64
2021/11/18 11:38:55;;;;;;;16.58;6.95;;;;;;;12.71;55.97;97570.19;5026060;28;20053;-64
2021/11/18 11:41:50;;;;;;;17.45;7.82;;;;;;;12.36;57.28;97566.00;5041282;28;20151;-69
2021/11/18 11:44:22;;;;;;;15.93;7.55;;;;;;;12.71;56.43;97570.19;5047206;28;20161;-71